createdAt,value
2018-05-18T00:00:17.781Z,18.25
2018-05-18T00:02:45.558Z,18.15
2018-05-18T00:05:13.335Z,18.13
2018-05-18T00:07:40.967Z,18.10
2018-05-18T00:10:08.873Z,18.06
2018-05-18T00:12:36.496Z,18.10
2018-05-18T00:15:04.163Z,18.13
2018-05-18T00:17:32.151Z,18.28
2018-05-18T00:19:59.917Z,18.21
2018-05-18T00:22:31.134Z,18.26
2018-05-18T00:24:58.910Z,18.18
2018-05-18T00:27:26.578Z,18.13
2018-05-18T00:29:54.176Z,18.21
2018-05-18T00:32:30.865Z,18.16
2018-05-18T00:34:58.511Z,18.05
2018-05-18T00:37:26.170Z,17.97
2018-05-18T00:39:53.941Z,17.93
2018-05-18T00:42:25.203Z,17.91
2018-05-18T00:44:52.881Z,17.87
2018-05-18T00:47:20.524Z,17.80
2018-05-18T00:49:48.132Z,17.70
2018-05-18T00:52:15.846Z,17.62
2018-05-18T00:54:43.657Z,17.65
2018-05-18T00:57:11.335Z,17.68
2018-05-18T00:59:38.969Z,17.61
2018-05-18T01:02:07.174Z,17.60
2018-05-18T01:04:34.815Z,17.58
2018-05-18T01:07:02.434Z,17.53
2018-05-18T01:09:30.543Z,17.52
2018-05-18T01:11:58.125Z,17.49
2018-05-18T01:16:58.658Z,17.42
2018-05-18T01:19:26.250Z,17.39
2018-05-18T01:21:53.844Z,17.37
2018-05-18T01:24:22.027Z,17.42
2018-05-18T01:26:57.063Z,17.39
2018-05-18T01:29:25.038Z,17.28
2018-05-18T01:31:52.681Z,17.25
2018-05-18T01:34:20.373Z,17.22
2018-05-18T01:36:48.209Z,17.24
2018-05-18T01:39:15.837Z,17.34
2018-05-18T01:41:43.503Z,17.34
2018-05-18T01:44:12.725Z,17.28
2018-05-18T01:46:47.496Z,17.21
2018-05-18T01:49:15.245Z,17.23
2018-05-18T01:51:43.820Z,17.25
2018-05-18T01:54:11.499Z,17.24
2018-05-18T01:56:39.327Z,17.19
2018-05-18T01:59:07.036Z,17.20
2018-05-18T02:01:34.618Z,17.18
2018-05-18T02:04:02.500Z,17.13
2018-05-18T02:06:30.147Z,17.06
2018-05-18T02:08:57.830Z,17.00
2018-05-18T02:11:25.521Z,16.90
2018-05-18T02:13:53.142Z,16.86
2018-05-18T02:16:20.815Z,16.83
2018-05-18T02:18:48.969Z,16.76
2018-05-18T02:21:16.581Z,16.69
2018-05-18T02:23:44.183Z,16.56
2018-05-18T02:26:12.340Z,16.62
2018-05-18T02:28:39.937Z,16.61
2018-05-18T02:31:07.583Z,16.57
2018-05-18T02:33:35.290Z,16.54
2018-05-18T02:36:02.942Z,16.51
2018-05-18T02:38:30.552Z,16.47
2018-05-18T02:40:58.935Z,16.46
2018-05-18T02:43:26.526Z,16.42
2018-05-18T02:45:54.178Z,16.41
2018-05-18T02:48:24.919Z,16.35
2018-05-18T02:50:54.676Z,16.36
2018-05-18T02:53:30.507Z,16.42
2018-05-18T02:55:58.105Z,16.27
2018-05-18T02:58:25.757Z,16.22
2018-05-18T03:00:53.468Z,16.34
2018-05-18T03:03:21.069Z,16.29
2018-05-18T03:05:48.704Z,16.35
2018-05-18T03:08:22.667Z,16.36
2018-05-18T03:10:56.807Z,16.34
2018-05-18T03:13:24.933Z,16.35
2018-05-18T03:15:52.512Z,16.49
2018-05-18T03:18:20.131Z,16.44
2018-05-18T03:20:48.333Z,16.44
2018-05-18T03:23:16.080Z,16.62
2018-05-18T03:25:43.728Z,16.75
2018-05-18T03:28:11.429Z,16.85
2018-05-18T03:30:39.013Z,16.95
2018-05-18T03:33:06.714Z,17.04
2018-05-18T03:35:34.423Z,17.12
2018-05-18T03:38:02.033Z,17.27
2018-05-18T03:40:29.676Z,17.41
2018-05-18T03:42:57.372Z,17.54
2018-05-18T03:45:24.991Z,17.73
2018-05-18T03:47:52.655Z,17.88
2018-05-18T03:50:20.808Z,18.07
2018-05-18T03:52:48.405Z,18.23
2018-05-18T03:55:16.099Z,18.22
2018-05-18T03:57:43.773Z,18.43
2018-05-18T04:00:11.416Z,18.61
2018-05-18T04:02:50.967Z,18.81
2018-05-18T04:05:30.227Z,19.08
2018-05-18T04:08:10.293Z,19.26
2018-05-18T04:10:37.885Z,19.36
2018-05-18T04:13:05.521Z,19.45
2018-05-18T04:15:33.334Z,19.57
2018-05-18T04:18:01.310Z,19.74
2018-05-18T04:20:28.882Z,19.94
2018-05-18T04:22:56.847Z,20.15
2018-05-18T04:25:24.420Z,20.28
2018-05-18T04:27:52.058Z,20.34
2018-05-18T04:30:19.837Z,20.36
2018-05-18T04:32:47.418Z,20.29
2018-05-18T04:35:15.504Z,20.67
2018-05-18T04:37:43.146Z,20.87
2018-05-18T04:40:10.756Z,21.17
2018-05-18T04:42:38.422Z,21.36
2018-05-18T04:45:06.267Z,21.52
2018-05-18T04:47:33.930Z,21.60
2018-05-18T04:50:01.608Z,22.03
2018-05-18T04:52:29.662Z,22.20
2018-05-18T04:54:57.325Z,22.43
2018-05-18T04:57:25.391Z,22.65
2018-05-18T04:59:53.143Z,22.83
2018-05-18T05:02:27.769Z,23.00
2018-05-18T05:04:55.649Z,23.13
2018-05-18T05:07:25.329Z,23.27
2018-05-18T05:09:53.015Z,23.26
2018-05-18T05:12:20.954Z,22.93
2018-05-18T05:14:48.728Z,22.74
2018-05-18T05:17:16.340Z,23.18
2018-05-18T05:19:44.597Z,23.20
2018-05-18T05:22:12.237Z,23.28
2018-05-18T05:24:39.860Z,23.47
2018-05-18T05:27:07.695Z,23.76
2018-05-18T05:29:35.460Z,24.11
2018-05-18T05:32:04.147Z,24.15
2018-05-18T05:34:31.775Z,24.30
2018-05-18T05:36:59.353Z,24.30
2018-05-18T05:39:26.984Z,24.51
2018-05-18T05:41:54.782Z,24.54
2018-05-18T05:44:22.408Z,23.72
2018-05-18T05:46:50.041Z,24.56
2018-05-18T05:49:18.758Z,24.95
2018-05-18T05:51:46.379Z,24.96
2018-05-18T05:54:13.968Z,24.73
2018-05-18T05:56:41.583Z,24.86
2018-05-18T05:59:09.197Z,24.92
2018-05-18T06:01:36.793Z,24.69
2018-05-18T06:04:04.781Z,24.26
2018-05-18T06:06:32.358Z,23.94
2018-05-18T06:08:59.937Z,23.52
2018-05-18T06:11:27.931Z,23.20
2018-05-18T06:13:55.585Z,23.03
2018-05-18T06:16:23.215Z,22.76
2018-05-18T06:18:51.034Z,22.84
2018-05-18T06:21:18.645Z,22.36
2018-05-18T06:23:46.264Z,22.26
2018-05-18T06:26:13.897Z,22.47
2018-05-18T06:28:41.546Z,22.52
2018-05-18T06:31:09.102Z,22.58
2018-05-18T06:33:37.223Z,22.63
2018-05-18T06:36:04.822Z,22.73
2018-05-18T06:38:32.417Z,22.82
2018-05-18T06:41:00.202Z,22.81
2018-05-18T06:43:27.787Z,22.66
2018-05-18T06:45:55.401Z,22.65
2018-05-18T06:48:23.187Z,22.78
2018-05-18T06:50:50.764Z,22.83
2018-05-18T06:53:18.338Z,22.52
2018-05-18T06:55:46.110Z,22.79
2018-05-18T06:58:13.709Z,23.03
2018-05-18T07:00:41.294Z,23.01
2018-05-18T07:03:09.227Z,23.02
2018-05-18T07:05:36.841Z,22.80
2018-05-18T07:08:04.477Z,22.87
2018-05-18T07:10:32.618Z,22.51
2018-05-18T07:13:00.248Z,22.77
2018-05-18T07:15:27.872Z,22.97
2018-05-18T07:17:55.680Z,23.20
2018-05-18T07:20:23.298Z,23.16
2018-05-18T07:22:50.876Z,23.19
2018-05-18T07:25:18.699Z,22.91
2018-05-18T07:27:46.324Z,23.14
2018-05-18T07:30:13.918Z,23.41
2018-05-18T07:32:41.911Z,23.57
2018-05-18T07:35:09.532Z,23.59
2018-05-18T07:37:37.137Z,23.87
2018-05-18T07:40:05.083Z,24.03
2018-05-18T07:42:32.745Z,24.01
2018-05-18T07:45:00.490Z,23.97
2018-05-18T07:47:28.275Z,24.31
2018-05-18T07:49:55.889Z,24.54
2018-05-18T07:52:23.471Z,24.88
2018-05-18T07:54:51.275Z,25.03
2018-05-18T07:57:18.854Z,25.33
2018-05-18T07:59:46.412Z,25.37
2018-05-18T08:02:14.042Z,25.02
2018-05-18T08:04:41.665Z,24.19
2018-05-18T08:07:09.290Z,24.48
2018-05-18T08:09:37.210Z,24.82
2018-05-18T08:12:04.789Z,24.44
2018-05-18T08:14:32.368Z,24.46
2018-05-18T08:17:00.880Z,23.94
2018-05-18T08:19:28.605Z,24.05
2018-05-18T08:21:56.209Z,24.37
2018-05-18T08:24:23.833Z,24.55
2018-05-18T08:27:03.083Z,24.51
2018-05-18T08:29:35.158Z,24.46
2018-05-18T08:32:02.760Z,24.14
2018-05-18T08:34:30.390Z,24.21
2018-05-18T08:36:58.187Z,24.67
2018-05-18T08:39:25.798Z,24.96
2018-05-18T08:41:53.441Z,25.13
2018-05-18T08:44:21.208Z,25.55
2018-05-18T08:46:48.824Z,25.88
2018-05-18T08:49:16.411Z,26.13
2018-05-18T08:51:44.084Z,26.35
2018-05-18T08:54:11.709Z,26.26
2018-05-18T08:56:39.257Z,26.44
2018-05-18T08:59:06.885Z,26.24
2018-05-18T09:01:34.478Z,26.14
2018-05-18T09:04:02.095Z,26.44
2018-05-18T09:06:30.166Z,26.69
2018-05-18T09:08:57.837Z,26.86
2018-05-18T09:11:25.424Z,26.88
2018-05-18T09:13:53.200Z,26.93
2018-05-18T09:16:20.796Z,26.35
2018-05-18T09:18:48.370Z,25.79
2018-05-18T09:21:16.002Z,26.17
2018-05-18T09:23:44.144Z,26.53
2018-05-18T09:26:11.764Z,26.39
2018-05-18T09:28:39.412Z,26.42
2018-05-18T09:31:07.004Z,26.48
2018-05-18T09:33:34.618Z,26.59
2018-05-18T09:36:02.253Z,26.72
2018-05-18T09:38:29.871Z,26.95
2018-05-18T09:40:57.477Z,27.00
2018-05-18T09:43:25.084Z,26.22
2018-05-18T09:45:52.676Z,25.64
2018-05-18T09:48:20.260Z,26.22
2018-05-18T09:50:47.868Z,26.48
2018-05-18T09:53:15.446Z,26.76
2018-05-18T09:55:43.047Z,26.82
2018-05-18T09:58:10.852Z,27.03
2018-05-18T10:00:38.518Z,27.30
2018-05-18T10:03:06.136Z,27.50
2018-05-18T10:05:33.783Z,27.75
2018-05-18T10:08:01.395Z,27.98
2018-05-18T10:10:28.964Z,27.67
2018-05-18T10:12:56.909Z,27.44
2018-05-18T10:15:24.490Z,27.19
2018-05-18T10:17:52.076Z,27.08
2018-05-18T10:20:20.024Z,27.06
2018-05-18T10:22:47.603Z,27.35
2018-05-18T10:25:15.259Z,27.10
2018-05-18T10:27:42.884Z,26.85
2018-05-18T10:30:10.497Z,27.15
2018-05-18T10:32:38.084Z,26.75
2018-05-18T10:35:05.695Z,26.99
2018-05-18T10:37:33.276Z,27.19
2018-05-18T10:40:00.845Z,27.13
2018-05-18T10:42:28.612Z,26.85
2018-05-18T10:44:56.189Z,27.06
2018-05-18T10:47:23.784Z,27.01
2018-05-18T10:49:52.325Z,26.78
2018-05-18T10:52:19.900Z,26.63
2018-05-18T10:54:47.478Z,26.80
2018-05-18T10:57:15.135Z,26.83
2018-05-18T10:59:42.746Z,26.79
2018-05-18T11:02:10.314Z,26.85
2018-05-18T11:04:38.076Z,27.24
2018-05-18T11:07:06.595Z,27.29
2018-05-18T11:09:34.179Z,27.47
2018-05-18T11:12:01.839Z,27.45
2018-05-18T11:14:29.440Z,27.34
2018-05-18T11:16:57.034Z,27.44
2018-05-18T11:19:24.844Z,27.01
2018-05-18T11:21:52.449Z,27.10
2018-05-18T11:24:20.039Z,27.33
2018-05-18T11:26:47.665Z,27.52
2018-05-18T11:29:15.253Z,27.51
2018-05-18T11:31:42.851Z,27.39
2018-05-18T11:34:10.859Z,27.52
2018-05-18T11:36:38.447Z,27.22
2018-05-18T11:39:06.183Z,27.42
2018-05-18T11:41:34.157Z,27.69
2018-05-18T11:44:01.740Z,27.86
2018-05-18T11:46:29.346Z,27.65
2018-05-18T11:48:57.292Z,27.63
2018-05-18T11:51:24.923Z,27.81
2018-05-18T11:53:52.529Z,27.65
2018-05-18T11:56:20.341Z,27.87
2018-05-18T11:58:47.920Z,27.68
2018-05-18T12:01:15.505Z,27.93
2018-05-18T12:03:43.437Z,28.10
2018-05-18T12:06:11.032Z,28.01
2018-05-18T12:08:38.626Z,27.60
2018-05-18T12:11:06.327Z,27.96
2018-05-18T12:13:33.969Z,28.18
2018-05-18T12:16:01.551Z,28.48
2018-05-18T12:18:29.314Z,28.97
2018-05-18T12:20:56.916Z,29.37
2018-05-18T12:23:24.508Z,29.56
2018-05-18T12:25:52.272Z,29.55
2018-05-18T12:28:19.902Z,29.30
2018-05-18T12:30:47.489Z,29.00
2018-05-18T12:33:15.125Z,29.17
2018-05-18T12:35:42.726Z,29.01
2018-05-18T12:38:10.364Z,29.17
2018-05-18T12:40:37.939Z,29.01
2018-05-18T12:43:05.505Z,28.98
2018-05-18T12:45:33.104Z,28.46
2018-05-18T12:48:00.731Z,28.67
2018-05-18T12:50:28.321Z,28.98
2018-05-18T12:52:55.959Z,29.29
2018-05-18T12:55:23.906Z,29.55
2018-05-18T12:57:51.501Z,29.78
2018-05-18T13:00:19.085Z,29.78
2018-05-18T13:02:47.070Z,29.46
2018-05-18T13:05:14.690Z,28.73
2018-05-18T13:07:42.289Z,28.85
2018-05-18T13:10:10.689Z,28.64
2018-05-18T13:12:38.304Z,28.37
2018-05-18T13:15:05.903Z,28.75
2018-05-18T13:17:34.069Z,28.48
2018-05-18T13:20:01.647Z,28.56
2018-05-18T13:22:29.244Z,28.60
2018-05-18T13:24:57.337Z,28.49
2018-05-18T13:27:24.871Z,28.48
2018-05-18T13:29:56.343Z,28.52
2018-05-18T13:32:23.982Z,28.59
2018-05-18T13:34:51.637Z,29.01
2018-05-18T13:37:19.251Z,28.84
2018-05-18T13:39:46.857Z,28.49
2018-05-18T13:42:14.452Z,28.48
2018-05-18T13:44:42.108Z,28.68
2018-05-18T13:47:09.702Z,28.85
2018-05-18T13:49:37.270Z,28.64
2018-05-18T13:52:04.863Z,28.37
2018-05-18T13:54:32.558Z,28.65
2018-05-18T13:57:00.210Z,29.06
2018-05-18T13:59:27.818Z,29.31
2018-05-18T14:01:55.464Z,29.17
2018-05-18T14:04:23.070Z,29.18
2018-05-18T14:06:50.718Z,29.50
2018-05-18T14:09:18.447Z,29.64
2018-05-18T14:11:46.047Z,29.77
2018-05-18T14:14:13.668Z,29.42
2018-05-18T14:16:41.767Z,28.75
2018-05-18T14:19:09.403Z,29.00
2018-05-18T14:21:37.009Z,28.70
2018-05-18T14:24:04.951Z,28.51
2018-05-18T14:26:32.530Z,28.49
2018-05-18T14:29:00.125Z,28.18
2018-05-18T14:31:28.128Z,28.07
2018-05-18T14:33:55.732Z,28.38
2018-05-18T14:36:23.329Z,28.50
2018-05-18T14:38:50.991Z,28.49
2018-05-18T14:41:18.578Z,28.30
2018-05-18T14:43:46.158Z,28.61
2018-05-18T14:46:14.109Z,28.38
2018-05-18T14:48:41.723Z,28.57
2018-05-18T14:51:09.393Z,28.59
2018-05-18T14:53:37.293Z,28.51
2018-05-18T14:56:04.934Z,28.72
2018-05-18T14:58:32.597Z,28.91
2018-05-18T15:01:00.445Z,29.21
2018-05-18T15:03:28.067Z,29.45
2018-05-18T15:05:55.685Z,29.67
2018-05-18T15:08:23.683Z,29.13
2018-05-18T15:10:51.310Z,29.10
2018-05-18T15:13:18.891Z,29.15
2018-05-18T15:15:46.838Z,29.03
2018-05-18T15:18:14.454Z,29.07
2018-05-18T15:20:42.027Z,29.06
2018-05-18T15:23:09.705Z,28.73
2018-05-18T15:25:37.320Z,28.86
2018-05-18T15:28:04.918Z,28.63
2018-05-18T15:30:32.562Z,28.65
2018-05-18T15:33:00.170Z,28.75
2018-05-18T15:35:27.756Z,28.94
2018-05-18T15:37:55.786Z,29.07
2018-05-18T15:40:23.411Z,29.02
2018-05-18T15:42:51.051Z,28.97
2018-05-18T15:45:18.697Z,28.86
2018-05-18T15:47:46.284Z,28.68
2018-05-18T15:50:13.868Z,28.42
2018-05-18T15:52:41.517Z,28.37
2018-05-18T15:55:09.167Z,28.32
2018-05-18T15:57:36.754Z,28.30
2018-05-18T16:00:04.421Z,28.36
2018-05-18T16:02:32.032Z,28.45
2018-05-18T16:04:59.665Z,28.58
2018-05-18T16:07:27.526Z,28.61
2018-05-18T16:09:55.112Z,28.51
2018-05-18T16:12:22.822Z,28.38
2018-05-18T16:14:50.788Z,28.24
2018-05-18T16:17:18.396Z,28.16
2018-05-18T16:19:46.015Z,27.99
2018-05-18T16:22:14.465Z,27.89
2018-05-18T16:24:42.061Z,27.75
2018-05-18T16:27:09.664Z,27.67
2018-05-18T16:29:37.746Z,27.54
2018-05-18T16:32:05.341Z,27.42
2018-05-18T16:34:33.020Z,27.33
2018-05-18T16:37:01.021Z,27.23
2018-05-18T16:39:28.646Z,27.16
2018-05-18T16:41:56.349Z,27.13
2018-05-18T16:44:23.983Z,27.07
2018-05-18T16:46:51.584Z,27.02
2018-05-18T16:49:19.188Z,26.99
2018-05-18T16:51:46.970Z,26.97
2018-05-18T16:54:14.585Z,26.94
2018-05-18T16:56:42.169Z,26.90
2018-05-18T16:59:10.155Z,26.85
2018-05-18T17:01:37.765Z,26.75
2018-05-18T17:04:05.370Z,26.69
2018-05-18T17:06:33.464Z,26.62
2018-05-18T17:09:01.052Z,26.55
2018-05-18T17:11:29.191Z,26.49
2018-05-18T17:13:57.245Z,26.39
2018-05-18T17:16:24.858Z,26.31
2018-05-18T17:18:52.585Z,26.20
2018-05-18T17:21:20.383Z,26.07
2018-05-18T17:23:47.983Z,25.96
2018-05-18T17:26:15.633Z,25.86
2018-05-18T17:28:43.470Z,25.86
2018-05-18T17:31:11.065Z,25.79
2018-05-18T17:33:38.672Z,25.77
2018-05-18T17:36:06.608Z,25.73
2018-05-18T17:38:34.278Z,25.77
2018-05-18T17:41:01.874Z,25.86
2018-05-18T17:43:29.515Z,25.83
2018-05-18T17:45:57.162Z,25.83
2018-05-18T17:48:24.769Z,25.84
2018-05-18T17:50:52.428Z,25.78
2018-05-18T17:53:20.189Z,25.34
2018-05-18T17:55:47.868Z,24.67
2018-05-18T17:58:16.225Z,24.00
2018-05-18T18:00:43.850Z,23.48
2018-05-18T18:03:11.410Z,22.66
2018-05-18T18:05:39.270Z,21.57
2018-05-18T18:08:06.797Z,20.38
2018-05-18T18:10:34.389Z,19.83
2018-05-18T18:13:02.054Z,19.56
2018-05-18T18:15:29.637Z,19.43
2018-05-18T18:17:57.224Z,19.41
2018-05-18T18:20:25.781Z,19.25
2018-05-18T18:22:53.375Z,19.10
2018-05-18T18:25:20.988Z,19.05
2018-05-18T18:27:48.797Z,18.89
2018-05-18T18:30:16.396Z,18.95
2018-05-18T18:32:43.982Z,18.93
2018-05-18T18:35:11.764Z,18.81
2018-05-18T18:37:39.336Z,18.88
2018-05-18T18:40:06.967Z,19.17
2018-05-18T18:42:34.597Z,19.29
2018-05-18T18:45:02.225Z,19.37
2018-05-18T18:47:29.784Z,19.54
2018-05-18T18:49:57.384Z,19.58
2018-05-18T18:52:25.013Z,19.58
2018-05-18T18:54:52.594Z,19.50
2018-05-18T18:57:20.519Z,19.40
2018-05-18T18:59:48.113Z,19.40
2018-05-18T19:02:15.715Z,19.39
2018-05-18T19:04:43.739Z,19.41
2018-05-18T19:07:11.342Z,19.47
2018-05-18T19:09:38.936Z,19.38
2018-05-18T19:12:06.565Z,19.42
2018-05-18T19:14:34.150Z,19.45
2018-05-18T19:17:01.733Z,19.46
2018-05-18T19:19:29.356Z,19.46
2018-05-18T19:21:56.966Z,19.33
2018-05-18T19:24:24.542Z,19.28
2018-05-18T19:26:52.568Z,19.30
2018-05-18T19:29:20.168Z,19.39
2018-05-18T19:31:47.767Z,19.40
2018-05-18T19:34:15.880Z,19.37
2018-05-18T19:36:43.485Z,19.45
2018-05-18T19:39:11.093Z,19.43
2018-05-18T19:41:38.862Z,19.37
2018-05-18T19:44:06.458Z,19.35
2018-05-18T19:46:34.043Z,19.32
2018-05-18T19:49:01.664Z,19.39
2018-05-18T19:51:29.353Z,19.33
2018-05-18T19:53:57.032Z,19.39
2018-05-18T19:56:24.859Z,19.46
2018-05-18T19:58:52.584Z,19.48
2018-05-18T20:01:20.196Z,19.50
2018-05-18T20:03:47.963Z,19.48
2018-05-18T20:06:15.540Z,19.52
2018-05-18T20:08:43.252Z,19.46
2018-05-18T20:11:11.976Z,19.43
2018-05-18T20:13:39.579Z,19.47
2018-05-18T20:16:07.185Z,19.51
2018-05-18T20:18:34.871Z,19.55
2018-05-18T20:21:02.583Z,19.44
2018-05-18T20:23:30.159Z,19.45
2018-05-18T20:25:58.164Z,19.43
2018-05-18T20:28:25.903Z,19.45
2018-05-18T20:30:53.599Z,19.45
2018-05-18T20:33:21.204Z,19.37
2018-05-18T20:35:48.844Z,19.36
2018-05-18T20:38:16.537Z,19.24
2018-05-18T20:40:44.582Z,19.13
2018-05-18T20:43:12.245Z,19.01
2018-05-18T20:45:39.896Z,18.97
2018-05-18T20:48:07.651Z,18.85
2018-05-18T20:50:35.234Z,18.85
2018-05-18T20:53:02.871Z,18.90
2018-05-18T20:55:31.052Z,18.80
2018-05-18T20:57:58.648Z,18.77
2018-05-18T21:00:26.769Z,18.76
2018-05-18T21:02:54.600Z,18.89
2018-05-18T21:05:22.227Z,18.88
2018-05-18T21:07:49.873Z,18.86
2018-05-18T21:10:17.548Z,18.81
2018-05-18T21:12:45.189Z,18.67
2018-05-18T21:15:12.823Z,18.75
2018-05-18T21:17:40.551Z,18.86
2018-05-18T21:20:08.187Z,18.86
2018-05-18T21:22:35.788Z,18.94
2018-05-18T21:25:03.584Z,18.95
2018-05-18T21:27:31.174Z,18.98
2018-05-18T21:29:58.810Z,19.05
2018-05-18T21:32:26.988Z,19.13
2018-05-18T21:34:54.571Z,19.14
2018-05-18T21:37:22.149Z,19.17
2018-05-18T21:39:49.996Z,19.25
2018-05-18T21:42:17.701Z,19.26
2018-05-18T21:44:45.341Z,19.25
2018-05-18T21:47:13.044Z,19.28
2018-05-18T21:49:40.683Z,19.13
2018-05-18T21:52:08.316Z,18.93
2018-05-18T21:54:36.378Z,18.93
2018-05-18T21:57:04.111Z,19.10
2018-05-18T21:59:31.720Z,19.18
2018-05-18T22:01:59.600Z,19.23
2018-05-18T22:04:27.256Z,19.18
2018-05-18T22:06:54.907Z,19.13
2018-05-18T22:09:22.607Z,19.02
2018-05-18T22:11:50.236Z,19.08
2018-05-18T22:14:17.945Z,19.05
2018-05-18T22:16:46.025Z,19.04
2018-05-18T22:19:13.603Z,19.05
2018-05-18T22:21:41.252Z,19.09
2018-05-18T22:24:08.976Z,19.00
2018-05-18T22:26:36.574Z,19.07
2018-05-18T22:29:04.253Z,19.06
2018-05-18T22:31:32.063Z,19.07
2018-05-18T22:33:59.770Z,19.06
2018-05-18T22:36:27.437Z,19.08
2018-05-18T22:38:55.119Z,19.01
2018-05-18T22:41:22.730Z,19.06
2018-05-18T22:43:50.427Z,19.02
2018-05-18T22:46:18.271Z,18.91
2018-05-18T22:48:45.957Z,18.79
2018-05-18T22:51:13.557Z,18.70
2018-05-18T22:53:41.461Z,18.64
2018-05-18T22:56:09.100Z,18.62
2018-05-18T22:58:36.669Z,18.56
2018-05-18T23:01:04.457Z,18.41
2018-05-18T23:03:32.107Z,18.24
2018-05-18T23:05:59.734Z,18.42
2018-05-18T23:08:27.895Z,18.44
2018-05-18T23:10:55.475Z,18.34
2018-05-18T23:13:23.130Z,18.25
2018-05-18T23:15:51.002Z,18.28
2018-05-18T23:18:18.661Z,18.32
2018-05-18T23:20:46.341Z,18.47
2018-05-18T23:23:14.488Z,18.54
2018-05-18T23:25:42.170Z,18.67
2018-05-18T23:28:09.729Z,18.66
2018-05-18T23:30:37.415Z,18.62
2018-05-18T23:33:05.004Z,18.58
2018-05-18T23:35:32.703Z,18.53
2018-05-18T23:38:00.417Z,18.47
2018-05-18T23:40:28.032Z,18.36
2018-05-18T23:42:55.659Z,18.29
2018-05-18T23:45:23.468Z,18.21
2018-05-18T23:47:51.172Z,18.14
2018-05-18T23:50:18.922Z,18.18
2018-05-18T23:52:46.546Z,18.11
2018-05-18T23:55:14.164Z,18.11
2018-05-18T23:57:41.783Z,18.11
